sensor_id;sensor_type;location;lat;lon;timestamp;pressure;altitude;pressure_sealevel;temperature;humidity
60820;BME280;46641;48.904;9.126;2024-02-23T00:04:15;96619.25;;;13.69;61.44
60820;BME280;46641;48.904;9.126;2024-02-23T00:09:05;96617.84;;;13.66;62.47
60820;BME280;46641;48.904;9.126;2024-02-23T00:13:55;96619.69;;;13.66;62.63
60820;BME280;46641;48.904;9.126;2024-02-23T00:18:46;96607.75;;;13.63;61.35
60820;BME280;46641;48.904;9.126;2024-02-23T00:23:36;96614.47;;;13.59;60.40
60820;BME280;46641;48.904;9.126;2024-02-23T00:28:26;96618.97;;;13.45;59.80
60820;BME280;46641;48.904;9.126;2024-02-23T00:33:17;96626.88;;;13.45;61.23
60820;BME280;46641;48.904;9.126;2024-02-23T00:38:07;96653.84;;;13.34;60.62
60820;BME280;46641;48.904;9.126;2024-02-23T00:42:58;96674.44;;;13.37;61.45
60820;BME280;46641;48.904;9.126;2024-02-23T00:47:50;96658.44;;;13.39;62.39
60820;BME280;46641;48.904;9.126;2024-02-23T00:52:40;96659.84;;;13.41;62.11
60820;BME280;46641;48.904;9.126;2024-02-23T00:57:31;96669.94;;;13.44;61.91
60820;BME280;46641;48.904;9.126;2024-02-23T01:02:21;96686.50;;;13.45;62.61
60820;BME280;46641;48.904;9.126;2024-02-23T01:07:11;96705.13;;;13.43;62.59
60820;BME280;46641;48.904;9.126;2024-02-23T01:12:02;96688.56;;;13.43;62.60
60820;BME280;46641;48.904;9.126;2024-02-23T01:16:52;96688.56;;;13.43;62.44
60820;BME280;46641;48.904;9.126;2024-02-23T01:21:42;96687.75;;;13.42;62.58
60820;BME280;46641;48.904;9.126;2024-02-23T01:26:33;96681.66;;;13.42;62.68
60820;BME280;46641;48.904;9.126;2024-02-23T01:31:24;96704.38;;;13.36;61.63
60820;BME280;46641;48.904;9.126;2024-02-23T01:36:14;96707.19;;;13.35;62.88
60820;BME280;46641;48.904;9.126;2024-02-23T01:41:05;96703.75;;;13.34;63.20
60820;BME280;46641;48.904;9.126;2024-02-23T01:45:56;96709.63;;;13.36;63.49
60820;BME280;46641;48.904;9.126;2024-02-23T01:50:46;96713.63;;;13.39;63.22
60820;BME280;46641;48.904;9.126;2024-02-23T01:55:37;96724.97;;;13.39;62.90
60820;BME280;46641;48.904;9.126;2024-02-23T02:00:30;96723.75;;;13.35;62.85
60820;BME280;46641;48.904;9.126;2024-02-23T02:05:21;96722.56;;;13.31;63.00
60820;BME280;46641;48.904;9.126;2024-02-23T02:10:12;96727.84;;;13.24;63.65
60820;BME280;46641;48.904;9.126;2024-02-23T02:15:03;96735.09;;;13.22;62.87
60820;BME280;46641;48.904;9.126;2024-02-23T02:19:54;96758.16;;;13.20;63.73
60820;BME280;46641;48.904;9.126;2024-02-23T02:24:44;96767.84;;;13.20;63.38
60820;BME280;46641;48.904;9.126;2024-02-23T02:29:36;96766.59;;;13.22;63.87
60820;BME280;46641;48.904;9.126;2024-02-23T02:34:26;96753.09;;;13.25;64.05
60820;BME280;46641;48.904;9.126;2024-02-23T02:39:18;96752.91;;;13.27;64.02
60820;BME280;46641;48.904;9.126;2024-02-23T02:44:09;96746.44;;;13.29;64.15
60820;BME280;46641;48.904;9.126;2024-02-23T02:48:59;96743.81;;;13.29;63.83
60820;BME280;46641;48.904;9.126;2024-02-23T02:53:49;96738.53;;;13.29;63.80
60820;BME280;46641;48.904;9.126;2024-02-23T02:58:40;96739.53;;;13.28;63.82
60820;BME280;46641;48.904;9.126;2024-02-23T03:03:30;96747.66;;;13.27;63.90
60820;BME280;46641;48.904;9.126;2024-02-23T03:08:20;96742.59;;;13.25;64.12
60820;BME280;46641;48.904;9.126;2024-02-23T03:13:11;96753.28;;;13.24;64.06
60820;BME280;46641;48.904;9.126;2024-02-23T03:18:02;96748.22;;;13.22;64.19
60820;BME280;46641;48.904;9.126;2024-02-23T03:22:52;96747.63;;;13.20;64.23
60820;BME280;46641;48.904;9.126;2024-02-23T03:27:42;96726.22;;;13.17;64.42
60820;BME280;46641;48.904;9.126;2024-02-23T03:32:33;96743.00;;;13.16;64.28
60820;BME280;46641;48.904;9.126;2024-02-23T03:37:26;96753.09;;;13.12;64.53
60820;BME280;46641;48.904;9.126;2024-02-23T03:42:16;96733.91;;;13.12;64.44
60820;BME280;46641;48.904;9.126;2024-02-23T03:47:07;96746.25;;;13.11;64.60
60820;BME280;46641;48.904;9.126;2024-02-23T03:51:57;96761.41;;;13.09;64.87
60820;BME280;46641;48.904;9.126;2024-02-23T03:56:47;96768.06;;;13.12;64.66
60820;BME280;46641;48.904;9.126;2024-02-23T04:01:38;96777.97;;;13.09;64.64
60820;BME280;46641;48.904;9.126;2024-02-23T04:06:29;96781.81;;;13.07;64.92
60820;BME280;46641;48.904;9.126;2024-02-23T04:11:19;96766.25;;;13.05;64.72
60820;BME280;46641;48.904;9.126;2024-02-23T04:16:09;96769.91;;;13.04;64.61
60820;BME280;46641;48.904;9.126;2024-02-23T04:21:00;96776.19;;;13.03;64.57
60820;BME280;46641;48.904;9.126;2024-02-23T04:25:50;96780.59;;;13.03;64.73
60820;BME280;46641;48.904;9.126;2024-02-23T04:30:41;96772.31;;;12.99;64.58
60820;BME280;46641;48.904;9.126;2024-02-23T04:35:31;96768.91;;;12.99;64.65
60820;BME280;46641;48.904;9.126;2024-02-23T04:40:21;96759.59;;;12.96;64.96
60820;BME280;46641;48.904;9.126;2024-02-23T04:45:11;96763.25;;;12.95;64.86
60820;BME280;46641;48.904;9.126;2024-02-23T04:50:02;96773.97;;;12.94;64.92
60820;BME280;46641;48.904;9.126;2024-02-23T04:54:53;96757.38;;;12.93;64.65
60820;BME280;46641;48.904;9.126;2024-02-23T04:59:43;96761.03;;;12.92;64.93
60820;BME280;46641;48.904;9.126;2024-02-23T05:04:33;96750.75;;;12.91;64.96
60820;BME280;46641;48.904;9.126;2024-02-23T05:09:24;96748.53;;;12.88;64.85
60820;BME280;46641;48.904;9.126;2024-02-23T05:14:14;96754.59;;;12.88;64.76
60820;BME280;46641;48.904;9.126;2024-02-23T05:19:04;96736.41;;;12.86;65.17
60820;BME280;46641;48.904;9.126;2024-02-23T05:23:55;96744.50;;;12.85;64.58
60820;BME280;46641;48.904;9.126;2024-02-23T05:28:45;96748.94;;;12.84;64.74
60820;BME280;46641;48.904;9.126;2024-02-23T05:33:35;96762.47;;;12.81;64.93
60820;BME280;46641;48.904;9.126;2024-02-23T05:38:26;96765.28;;;12.80;64.72
60820;BME280;46641;48.904;9.126;2024-02-23T05:43:16;96769.97;;;12.78;64.84
60820;BME280;46641;48.904;9.126;2024-02-23T05:48:07;96779.66;;;12.77;65.14
60820;BME280;46641;48.904;9.126;2024-02-23T05:52:57;96783.28;;;12.76;65.01
60820;BME280;46641;48.904;9.126;2024-02-23T05:57:48;96781.84;;;12.74;65.04
60820;BME280;46641;48.904;9.126;2024-02-23T06:02:40;96793.38;;;12.73;64.92
60820;BME280;46641;48.904;9.126;2024-02-23T06:07:31;96788.94;;;12.73;64.81
60820;BME280;46641;48.904;9.126;2024-02-23T06:12:21;96798.03;;;12.71;64.63
60820;BME280;46641;48.904;9.126;2024-02-23T06:17:12;96796.63;;;12.68;65.12
60820;BME280;46641;48.904;9.126;2024-02-23T06:22:02;96810.56;;;12.62;59.60
60820;BME280;46641;48.904;9.126;2024-02-23T06:26:52;96818.59;;;12.40;57.51
60820;BME280;46641;48.904;9.126;2024-02-23T06:31:42;96816.56;;;12.16;55.81
60820;BME280;46641;48.904;9.126;2024-02-23T06:36:38;96833.13;;;12.16;58.80
60820;BME280;46641;48.904;9.126;2024-02-23T06:41:29;96834.94;;;12.23;58.45
60820;BME280;46641;48.904;9.126;2024-02-23T06:46:19;96829.31;;;12.26;59.30
60820;BME280;46641;48.904;9.126;2024-02-23T06:51:13;96822.03;;;12.28;59.52
60820;BME280;46641;48.904;9.126;2024-02-23T06:56:06;96816.78;;;12.28;60.04
60820;BME280;46641;48.904;9.126;2024-02-23T07:00:56;96815.78;;;12.29;60.64
60820;BME280;46641;48.904;9.126;2024-02-23T07:05:46;96826.06;;;12.30;60.82
60820;BME280;46641;48.904;9.126;2024-02-23T07:10:38;96836.38;;;12.32;61.26
60820;BME280;46641;48.904;9.126;2024-02-23T07:15:28;96838.38;;;12.30;61.22
60820;BME280;46641;48.904;9.126;2024-02-23T07:20:20;96842.44;;;12.32;61.15
60820;BME280;46641;48.904;9.126;2024-02-23T07:25:10;96841.81;;;12.30;61.65
60820;BME280;46641;48.904;9.126;2024-02-23T07:30:00;96840.59;;;12.33;61.86
60820;BME280;46641;48.904;9.126;2024-02-23T07:34:51;96839.81;;;12.32;61.77
60820;BME280;46641;48.904;9.126;2024-02-23T07:39:41;96829.31;;;12.32;62.02
60820;BME280;46641;48.904;9.126;2024-02-23T07:44:31;96819.22;;;12.29;62.72
60820;BME280;46641;48.904;9.126;2024-02-23T07:49:22;96826.88;;;12.31;62.29
60820;BME280;46641;48.904;9.126;2024-02-23T07:54:12;96830.50;;;12.30;62.50
60820;BME280;46641;48.904;9.126;2024-02-23T07:59:02;96826.28;;;12.29;62.78
60820;BME280;46641;48.904;9.126;2024-02-23T08:03:53;96833.75;;;12.32;62.69
60820;BME280;46641;48.904;9.126;2024-02-23T08:08:43;96849.28;;;12.33;62.75
60820;BME280;46641;48.904;9.126;2024-02-23T08:13:34;96846.88;;;12.32;63.08
60820;BME280;46641;48.904;9.126;2024-02-23T08:18:24;96848.66;;;12.31;63.08
60820;BME280;46641;48.904;9.126;2024-02-23T08:23:14;96841.00;;;12.30;63.18
60820;BME280;46641;48.904;9.126;2024-02-23T08:28:05;96834.56;;;12.32;63.10
60820;BME280;46641;48.904;9.126;2024-02-23T08:32:56;96828.50;;;12.32;63.35
60820;BME280;46641;48.904;9.126;2024-02-23T08:37:46;96818.00;;;12.32;63.49
60820;BME280;46641;48.904;9.126;2024-02-23T08:42:36;96817.00;;;12.33;63.32
60820;BME280;46641;48.904;9.126;2024-02-23T08:47:27;96813.34;;;12.34;63.55
60820;BME280;46641;48.904;9.126;2024-02-23T08:52:22;96826.47;;;12.34;63.50
60820;BME280;46641;48.904;9.126;2024-02-23T08:57:12;96829.72;;;12.36;63.32
60820;BME280;46641;48.904;9.126;2024-02-23T09:02:05;96831.72;;;12.34;63.71
60820;BME280;46641;48.904;9.126;2024-02-23T09:06:56;96837.97;;;12.33;63.63
60820;BME280;46641;48.904;9.126;2024-02-23T09:11:46;96841.22;;;12.35;63.96
60820;BME280;46641;48.904;9.126;2024-02-23T09:16:37;96849.09;;;12.35;63.84
60820;BME280;46641;48.904;9.126;2024-02-23T09:21:27;96854.94;;;12.37;63.96
60820;BME280;46641;48.904;9.126;2024-02-23T09:26:17;96849.69;;;12.37;63.90
60820;BME280;46641;48.904;9.126;2024-02-23T09:31:08;96842.44;;;12.39;63.85
60820;BME280;46641;48.904;9.126;2024-02-23T09:35:58;96849.50;;;12.38;63.71
60820;BME280;46641;48.904;9.126;2024-02-23T09:40:48;96850.31;;;12.39;63.92
60820;BME280;46641;48.904;9.126;2024-02-23T09:45:39;96840.78;;;12.38;63.99
60820;BME280;46641;48.904;9.126;2024-02-23T09:50:30;96841.41;;;12.40;64.17
60820;BME280;46641;48.904;9.126;2024-02-23T09:55:21;96855.16;;;12.42;64.39
60820;BME280;46641;48.904;9.126;2024-02-23T10:00:12;96851.50;;;12.43;64.23
60820;BME280;46641;48.904;9.126;2024-02-23T10:05:03;96858.38;;;12.44;64.31
60820;BME280;46641;48.904;9.126;2024-02-23T10:09:53;96859.59;;;12.48;64.36
60820;BME280;46641;48.904;9.126;2024-02-23T10:14:45;96850.72;;;12.49;64.53
60820;BME280;46641;48.904;9.126;2024-02-23T10:19:35;96856.16;;;12.54;64.53
60820;BME280;46641;48.904;9.126;2024-02-23T10:24:26;96862.41;;;12.53;64.87
60820;BME280;46641;48.904;9.126;2024-02-23T10:29:16;96862.81;;;12.57;64.68
60820;BME280;46641;48.904;9.126;2024-02-23T10:34:08;96878.00;;;12.61;64.54
60820;BME280;46641;48.904;9.126;2024-02-23T10:39:02;96876.56;;;12.66;64.85
60820;BME280;46641;48.904;9.126;2024-02-23T10:43:55;96864.66;;;12.70;64.83
60820;BME280;46641;48.904;9.126;2024-02-23T10:48:49;96853.56;;;12.81;64.40
60820;BME280;46641;48.904;9.126;2024-02-23T10:53:40;96853.34;;;12.89;64.06
60820;BME280;46641;48.904;9.126;2024-02-23T10:58:31;96854.34;;;12.95;64.47
60820;BME280;46641;48.904;9.126;2024-02-23T11:03:21;96845.25;;;13.04;64.33
60820;BME280;46641;48.904;9.126;2024-02-23T11:08:12;96843.03;;;13.14;64.31
60820;BME280;46641;48.904;9.126;2024-02-23T11:13:07;96840.63;;;13.26;63.45
60820;BME280;46641;48.904;9.126;2024-02-23T11:17:58;96828.84;;;13.35;63.73
60820;BME280;46641;48.904;9.126;2024-02-23T11:22:52;96832.47;;;13.41;64.00
60820;BME280;46641;48.904;9.126;2024-02-23T11:27:43;96827.63;;;13.44;63.60
60820;BME280;46641;48.904;9.126;2024-02-23T11:32:46;96825.78;;;13.51;63.98
60820;BME280;46641;48.904;9.126;2024-02-23T11:38:04;96837.28;;;13.57;63.72
60820;BME280;46641;48.904;9.126;2024-02-23T11:42:57;96825.13;;;13.63;63.92
60820;BME280;46641;48.904;9.126;2024-02-23T11:47:47;96815.81;;;13.67;63.70
60820;BME280;46641;48.904;9.126;2024-02-23T11:52:38;96815.78;;;13.73;63.96
60820;BME280;46641;48.904;9.126;2024-02-23T11:57:28;96815.97;;;12.74;62.84
60820;BME280;46641;48.904;9.126;2024-02-23T12:02:19;96805.22;;;13.22;59.67
60820;BME280;46641;48.904;9.126;2024-02-23T12:07:09;96805.22;;;13.22;58.30
60820;BME280;46641;48.904;9.126;2024-02-23T12:12:00;96805.63;;;13.32;58.64
60820;BME280;46641;48.904;9.126;2024-02-23T12:16:51;96792.84;;;13.49;57.73
60820;BME280;46641;48.904;9.126;2024-02-23T12:21:45;96798.53;;;13.46;56.44
60820;BME280;46641;48.904;9.126;2024-02-23T12:26:35;96791.38;;;13.60;57.18
60820;BME280;46641;48.904;9.126;2024-02-23T12:31:25;96785.25;;;13.72;57.10
60820;BME280;46641;48.904;9.126;2024-02-23T12:36:16;96787.63;;;13.80;57.01
60820;BME280;46641;48.904;9.126;2024-02-23T12:41:07;96799.13;;;13.86;57.58
60820;BME280;46641;48.904;9.126;2024-02-23T12:45:58;96797.13;;;13.88;57.51
60820;BME280;46641;48.904;9.126;2024-02-23T12:50:49;96790.81;;;13.89;57.70
60820;BME280;46641;48.904;9.126;2024-02-23T12:55:40;96788.59;;;13.93;58.07
60820;BME280;46641;48.904;9.126;2024-02-23T13:00:31;96795.44;;;13.94;58.17
60820;BME280;46641;48.904;9.126;2024-02-23T13:05:21;96791.59;;;13.96;58.40
60820;BME280;46641;48.904;9.126;2024-02-23T13:10:11;96800.09;;;13.98;58.46
60820;BME280;46641;48.904;9.126;2024-02-23T13:15:02;96795.41;;;14.00;58.68
60820;BME280;46641;48.904;9.126;2024-02-23T13:19:52;96799.66;;;14.01;59.05
60820;BME280;46641;48.904;9.126;2024-02-23T13:24:42;96789.28;;;14.07;59.06
60820;BME280;46641;48.904;9.126;2024-02-23T13:29:33;96786.47;;;14.08;59.31
60820;BME280;46641;48.904;9.126;2024-02-23T13:34:23;96794.94;;;14.10;59.08
60820;BME280;46641;48.904;9.126;2024-02-23T13:39:13;96788.69;;;14.11;59.28
60820;BME280;46641;48.904;9.126;2024-02-23T13:44:04;96786.44;;;14.15;59.42
60820;BME280;46641;48.904;9.126;2024-02-23T13:49:05;96766.19;;;14.15;59.04
60820;BME280;46641;48.904;9.126;2024-02-23T13:53:57;96766.97;;;14.16;59.44
60820;BME280;46641;48.904;9.126;2024-02-23T13:58:47;96757.44;;;14.21;59.63
60820;BME280;46641;48.904;9.126;2024-02-23T14:03:39;96741.66;;;14.21;59.71
60820;BME280;46641;48.904;9.126;2024-02-23T14:08:29;96726.84;;;14.27;59.57
60820;BME280;46641;48.904;9.126;2024-02-23T14:13:19;96728.44;;;14.28;59.35
60820;BME280;46641;48.904;9.126;2024-02-23T14:18:10;96726.00;;;14.26;59.84
60820;BME280;46641;48.904;9.126;2024-02-23T14:23:00;96725.38;;;14.31;59.85
60820;BME280;46641;48.904;9.126;2024-02-23T14:27:50;96714.84;;;14.31;59.79
60820;BME280;46641;48.904;9.126;2024-02-23T14:32:41;96720.72;;;14.33;59.90
60820;BME280;46641;48.904;9.126;2024-02-23T14:37:32;96721.91;;;14.37;59.84
60820;BME280;46641;48.904;9.126;2024-02-23T14:42:22;96723.50;;;14.38;59.91
60820;BME280;46641;48.904;9.126;2024-02-23T14:47:13;96726.72;;;14.40;59.91
60820;BME280;46641;48.904;9.126;2024-02-23T14:52:03;96721.47;;;14.40;59.85
60820;BME280;46641;48.904;9.126;2024-02-23T14:56:54;96718.41;;;14.43;58.72
60820;BME280;46641;48.904;9.126;2024-02-23T15:01:44;96712.91;;;14.45;59.53
60820;BME280;46641;48.904;9.126;2024-02-23T15:06:35;96716.56;;;14.44;59.98
60820;BME280;46641;48.904;9.126;2024-02-23T15:11:27;96723.25;;;14.46;59.85
60820;BME280;46641;48.904;9.126;2024-02-23T15:16:19;96718.78;;;14.47;59.84
60820;BME280;46641;48.904;9.126;2024-02-23T15:21:09;96711.69;;;14.47;60.00
60820;BME280;46641;48.904;9.126;2024-02-23T15:25:59;96699.13;;;14.49;60.15
60820;BME280;46641;48.904;9.126;2024-02-23T15:30:50;96703.38;;;14.51;60.02
60820;BME280;46641;48.904;9.126;2024-02-23T15:35:41;96698.13;;;14.51;60.06
60820;BME280;46641;48.904;9.126;2024-02-23T15:40:32;96712.88;;;14.52;59.97
60820;BME280;46641;48.904;9.126;2024-02-23T15:45:22;96708.66;;;14.51;60.16
60820;BME280;46641;48.904;9.126;2024-02-23T15:50:12;96705.63;;;14.47;60.19
60820;BME280;46641;48.904;9.126;2024-02-23T15:55:04;96709.72;;;14.43;60.41
60820;BME280;46641;48.904;9.126;2024-02-23T15:59:54;96702.31;;;14.33;60.77
60820;BME280;46641;48.904;9.126;2024-02-23T16:04:45;96706.38;;;14.29;61.07
60820;BME280;46641;48.904;9.126;2024-02-23T16:09:35;96708.41;;;14.27;61.08
60820;BME280;46641;48.904;9.126;2024-02-23T16:14:25;96706.78;;;14.26;61.12
60820;BME280;46641;48.904;9.126;2024-02-23T16:19:16;96698.09;;;14.25;61.08
60820;BME280;46641;48.904;9.126;2024-02-23T16:24:08;96700.34;;;14.22;61.26
60820;BME280;46641;48.904;9.126;2024-02-23T16:28:58;96694.91;;;14.17;60.81
60820;BME280;46641;48.904;9.126;2024-02-23T16:33:48;96691.72;;;14.15;61.41
60820;BME280;46641;48.904;9.126;2024-02-23T16:38:39;96680.59;;;14.13;61.25
60820;BME280;46641;48.904;9.126;2024-02-23T16:43:30;96679.41;;;14.09;61.53
60820;BME280;46641;48.904;9.126;2024-02-23T16:48:20;96684.91;;;14.07;61.67
60820;BME280;46641;48.904;9.126;2024-02-23T16:53:11;96681.69;;;14.05;61.65
60820;BME280;46641;48.904;9.126;2024-02-23T16:58:01;96698.50;;;14.04;61.53
60820;BME280;46641;48.904;9.126;2024-02-23T17:02:52;96694.03;;;14.05;61.74
60820;BME280;46641;48.904;9.126;2024-02-23T17:07:44;96698.69;;;14.02;61.72
60820;BME280;46641;48.904;9.126;2024-02-23T17:12:34;96696.06;;;14.02;61.61
60820;BME280;46641;48.904;9.126;2024-02-23T17:17:25;96706.81;;;14.01;61.89
60820;BME280;46641;48.904;9.126;2024-02-23T17:22:15;96701.97;;;13.98;61.74
60820;BME280;46641;48.904;9.126;2024-02-23T17:27:06;96702.00;;;13.91;62.01
60820;BME280;46641;48.904;9.126;2024-02-23T17:31:56;96709.31;;;13.89;62.21
60820;BME280;46641;48.904;9.126;2024-02-23T17:36:47;96715.00;;;13.86;61.91
60820;BME280;46641;48.904;9.126;2024-02-23T17:41:38;96723.28;;;13.83;62.04
60820;BME280;46641;48.904;9.126;2024-02-23T17:46:29;96726.34;;;13.80;62.10
60820;BME280;46641;48.904;9.126;2024-02-23T17:51:19;96737.09;;;13.78;61.99
60820;BME280;46641;48.904;9.126;2024-02-23T17:56:09;96747.00;;;13.76;62.32
60820;BME280;46641;48.904;9.126;2024-02-23T18:01:00;96751.47;;;13.76;62.13
60820;BME280;46641;48.904;9.126;2024-02-23T18:05:50;96753.47;;;13.74;62.17
60820;BME280;46641;48.904;9.126;2024-02-23T18:10:40;96761.59;;;13.72;62.05
60820;BME280;46641;48.904;9.126;2024-02-23T18:15:31;96758.16;;;13.72;62.18
60820;BME280;46641;48.904;9.126;2024-02-23T18:20:22;96766.25;;;13.70;62.25
60820;BME280;46641;48.904;9.126;2024-02-23T18:25:15;96765.25;;;13.65;62.31
60820;BME280;46641;48.904;9.126;2024-02-23T18:30:06;96759.19;;;13.64;62.23
60820;BME280;46641;48.904;9.126;2024-02-23T18:34:56;96764.06;;;13.61;62.48
60820;BME280;46641;48.904;9.126;2024-02-23T18:39:47;96755.59;;;13.59;62.32
60820;BME280;46641;48.904;9.126;2024-02-23T18:44:37;96757.63;;;13.56;62.39
60820;BME280;46641;48.904;9.126;2024-02-23T18:49:27;96741.06;;;13.56;62.12
60820;BME280;46641;48.904;9.126;2024-02-23T18:54:21;96746.09;;;12.86;63.47
60820;BME280;46641;48.904;9.126;2024-02-23T18:59:11;96737.53;;;13.24;63.22
60820;BME280;46641;48.904;9.126;2024-02-23T19:04:02;96746.00;;;13.39;62.74
60820;BME280;46641;48.904;9.126;2024-02-23T19:08:52;96743.53;;;13.44;62.52
60820;BME280;46641;48.904;9.126;2024-02-23T19:13:43;96747.56;;;13.47;62.32
60820;BME280;46641;48.904;9.126;2024-02-23T19:18:33;96740.47;;;13.47;62.19
60820;BME280;46641;48.904;9.126;2024-02-23T19:23:23;96736.66;;;13.43;62.30
60820;BME280;46641;48.904;9.126;2024-02-23T19:28:13;96738.91;;;13.40;62.23
60820;BME280;46641;48.904;9.126;2024-02-23T19:33:04;96736.69;;;13.37;62.55
60820;BME280;46641;48.904;9.126;2024-02-23T19:37:54;96737.91;;;13.34;62.19
60820;BME280;46641;48.904;9.126;2024-02-23T19:42:44;96743.16;;;13.34;62.59
60820;BME280;46641;48.904;9.126;2024-02-23T19:47:34;96735.69;;;13.31;62.52
60820;BME280;46641;48.904;9.126;2024-02-23T19:52:25;96739.53;;;13.28;62.39
60820;BME280;46641;48.904;9.126;2024-02-23T19:57:16;96746.03;;;13.26;62.42
60820;BME280;46641;48.904;9.126;2024-02-23T20:02:08;96747.41;;;13.22;62.56
60820;BME280;46641;48.904;9.126;2024-02-23T20:07:02;96756.09;;;13.22;62.33
60820;BME280;46641;48.904;9.126;2024-02-23T20:11:56;96752.09;;;13.20;62.39
60820;BME280;46641;48.904;9.126;2024-02-23T20:16:46;96762.41;;;13.15;62.57
60820;BME280;46641;48.904;9.126;2024-02-23T20:21:40;96751.28;;;13.13;62.27
60820;BME280;46641;48.904;9.126;2024-02-23T20:26:30;96755.53;;;13.14;62.61
60820;BME280;46641;48.904;9.126;2024-02-23T20:31:21;96755.94;;;13.10;62.83
60820;BME280;46641;48.904;9.126;2024-02-23T20:36:11;96748.47;;;13.07;62.66
60820;BME280;46641;48.904;9.126;2024-02-23T20:41:02;96754.75;;;13.06;62.82
60820;BME280;46641;48.904;9.126;2024-02-23T20:45:52;96742.44;;;13.00;62.72
60820;BME280;46641;48.904;9.126;2024-02-23T20:50:43;96748.50;;;13.01;62.54
60820;BME280;46641;48.904;9.126;2024-02-23T20:55:33;96744.47;;;12.98;62.94
60820;BME280;46641;48.904;9.126;2024-02-23T21:00:24;96734.19;;;12.97;62.74
60820;BME280;46641;48.904;9.126;2024-02-23T21:05:14;96729.13;;;12.95;62.93
60820;BME280;46641;48.904;9.126;2024-02-23T21:10:05;96744.66;;;12.90;63.00
60820;BME280;46641;48.904;9.126;2024-02-23T21:14:57;96742.50;;;12.87;62.66
60820;BME280;46641;48.904;9.126;2024-02-23T21:19:48;96736.81;;;12.83;62.79
60820;BME280;46641;48.904;9.126;2024-02-23T21:24:38;96735.03;;;12.84;63.07
60820;BME280;46641;48.904;9.126;2024-02-23T21:29:30;96739.03;;;12.80;63.01
60820;BME280;46641;48.904;9.126;2024-02-23T21:34:20;96736.41;;;12.80;62.67
60820;BME280;46641;48.904;9.126;2024-02-23T21:39:10;96743.72;;;12.78;62.85
60820;BME280;46641;48.904;9.126;2024-02-23T21:44:01;96738.88;;;12.75;62.89
60820;BME280;46641;48.904;9.126;2024-02-23T21:48:51;96742.91;;;12.71;62.78
60820;BME280;46641;48.904;9.126;2024-02-23T21:53:41;96745.94;;;12.68;62.97
60820;BME280;46641;48.904;9.126;2024-02-23T21:58:33;96747.97;;;12.66;63.23
60820;BME280;46641;48.904;9.126;2024-02-23T22:03:24;96751.22;;;12.61;63.09
60820;BME280;46641;48.904;9.126;2024-02-23T22:08:15;96756.66;;;12.59;63.10
60820;BME280;46641;48.904;9.126;2024-02-23T22:13:05;96767.56;;;12.56;63.21
60820;BME280;46641;48.904;9.126;2024-02-23T22:17:56;96768.75;;;12.54;63.00
60820;BME280;46641;48.904;9.126;2024-02-23T22:22:47;96777.66;;;12.53;63.23
60820;BME280;46641;48.904;9.126;2024-02-23T22:27:37;96773.81;;;12.49;63.56
60820;BME280;46641;48.904;9.126;2024-02-23T22:32:28;96785.53;;;12.46;63.11
60820;BME280;46641;48.904;9.126;2024-02-23T22:37:18;96784.31;;;12.42;63.41
60820;BME280;46641;48.904;9.126;2024-02-23T22:42:08;96794.19;;;12.40;63.33
60820;BME280;46641;48.904;9.126;2024-02-23T22:46:59;96787.75;;;12.36;63.57
60820;BME280;46641;48.904;9.126;2024-02-23T22:51:49;96780.28;;;12.33;63.44
60820;BME280;46641;48.904;9.126;2024-02-23T22:56:40;96789.97;;;12.32;63.69
60820;BME280;46641;48.904;9.126;2024-02-23T23:01:30;96778.44;;;12.27;63.59
60820;BME280;46641;48.904;9.126;2024-02-23T23:06:21;96796.19;;;12.25;63.52
60820;BME280;46641;48.904;9.126;2024-02-23T23:11:11;96796.59;;;12.22;63.54
60820;BME280;46641;48.904;9.126;2024-02-23T23:16:01;96799.44;;;12.20;63.74
60820;BME280;46641;48.904;9.126;2024-02-23T23:20:52;96797.41;;;12.15;63.88
60820;BME280;46641;48.904;9.126;2024-02-23T23:25:42;96801.41;;;12.11;63.95
60820;BME280;46641;48.904;9.126;2024-02-23T23:30:33;96798.00;;;12.11;63.98
60820;BME280;46641;48.904;9.126;2024-02-23T23:35:23;96813.94;;;12.09;63.83
60820;BME280;46641;48.904;9.126;2024-02-23T23:40:14;96804.03;;;12.05;64.04
60820;BME280;46641;48.904;9.126;2024-02-23T23:45:06;96827.03;;;12.03;63.89
60820;BME280;46641;48.904;9.126;2024-02-23T23:49:56;96818.56;;;12.01;63.82
60820;BME280;46641;48.904;9.126;2024-02-23T23:54:47;96820.75;;;11.97;64.12
60820;BME280;46641;48.904;9.126;2024-02-23T23:59:38;96818.31;;;11.96;64.01
